sim
Sign-in with your pilot id or email,
or register
Callsign
Passwort

Schedule Details

Flight Number: RYR2318 (2)
Departure: London Stansted Airport (EGSS) at 17:45
Arrival: Bratislava M. R. Stefanik Airport (LZIB) at 19:55
Route: Ryanair Passenger Schedule. Enter filed route here before submitting Pirep.

Weather Information
Getting current METAR information for EGSS 232020Z AUTO 15004G14KT 100V230 5000 -RADZ BKN006 OVC009 12/11 Q1008
Getting current METAR information for LZIB 232030Z 05003KT 360V080 CAVOK 13/10 Q1017

Schedule Frequency

Route Map